createdAt,value
2023-02-17T00:01:34.035Z,15.00
2023-02-17T00:04:01.968Z,15.70
2023-02-17T00:06:32.217Z,14.27
2023-02-17T00:09:00.267Z,15.97
2023-02-17T00:11:28.435Z,15.07
2023-02-17T00:13:56.622Z,13.90
2023-02-17T00:16:28.121Z,15.33
2023-02-17T00:19:00.773Z,13.30
2023-02-17T00:21:32.087Z,14.50
2023-02-17T00:24:00.298Z,11.83
2023-02-17T00:26:27.338Z,9.87
2023-02-17T00:28:55.008Z,10.43
2023-02-17T00:31:23.927Z,10.00
2023-02-17T00:33:55.590Z,10.80
2023-02-17T00:36:22.820Z,10.13
2023-02-17T00:38:49.801Z,9.43
2023-02-17T00:41:19.064Z,8.60
2023-02-17T00:43:47.933Z,8.80
2023-02-17T00:46:17.298Z,8.47
2023-02-17T00:48:44.596Z,9.83
2023-02-17T00:51:11.567Z,8.60
2023-02-17T00:53:39.100Z,7.77
2023-02-17T00:56:07.496Z,8.07
2023-02-17T00:58:36.147Z,7.73
2023-02-17T01:01:03.213Z,8.37
2023-02-17T01:03:30.626Z,7.70
2023-02-17T01:05:57.850Z,6.87
2023-02-17T01:08:25.555Z,7.00
2023-02-17T01:10:53.832Z,7.07
2023-02-17T01:13:21.451Z,6.43
2023-02-17T01:15:53.562Z,6.07
2023-02-17T01:18:24.284Z,5.67
2023-02-17T01:20:52.652Z,6.07
2023-02-17T01:23:20.593Z,5.67
2023-02-17T01:25:50.492Z,5.10
2023-02-17T01:28:21.415Z,5.40
2023-02-17T01:30:49.402Z,5.67
2023-02-17T01:33:16.694Z,6.07
2023-02-17T01:35:43.723Z,11.67
2023-02-17T01:38:10.676Z,7.10
2023-02-17T01:40:37.617Z,6.23
2023-02-17T01:43:12.165Z,6.60
2023-02-17T01:45:51.114Z,9.63
2023-02-17T01:48:30.630Z,6.90
2023-02-17T01:51:14.012Z,7.37
2023-02-17T01:53:53.321Z,7.43
2023-02-17T01:56:22.526Z,6.53
2023-02-17T01:59:05.888Z,6.63
2023-02-17T02:01:33.138Z,7.40
2023-02-17T02:04:05.811Z,5.50
2023-02-17T02:06:39.978Z,6.93
2023-02-17T02:09:22.468Z,6.27
2023-02-17T02:11:51.896Z,5.97
2023-02-17T02:14:22.496Z,5.90
2023-02-17T02:17:31.152Z,5.97
2023-02-17T02:20:44.636Z,5.63
2023-02-17T02:24:12.114Z,6.50
2023-02-17T02:27:26.123Z,7.60
2023-02-17T02:30:23.838Z,5.97
2023-02-17T02:33:17.467Z,6.20
2023-02-17T02:36:22.938Z,7.07
2023-02-17T02:39:10.466Z,6.07
2023-02-17T02:41:50.129Z,6.60
2023-02-17T02:44:21.553Z,5.40
2023-02-17T02:47:27.213Z,4.50
2023-02-17T02:49:54.488Z,4.63
2023-02-17T02:52:47.980Z,5.10
2023-02-17T02:56:16.276Z,5.17
2023-02-17T02:59:32.721Z,5.37
2023-02-17T03:02:23.461Z,4.13
2023-02-17T03:05:10.769Z,5.70
2023-02-17T03:08:24.213Z,8.60
2023-02-17T03:10:54.246Z,5.20
2023-02-17T03:13:22.264Z,4.83
2023-02-17T03:15:49.769Z,4.17
2023-02-17T03:18:16.906Z,5.07
2023-02-17T03:21:04.688Z,4.67
2023-02-17T03:23:31.606Z,5.63
2023-02-17T03:25:58.925Z,5.40
2023-02-17T03:28:25.838Z,5.17
2023-02-17T03:30:52.911Z,5.27
2023-02-17T03:33:19.796Z,4.87
2023-02-17T03:35:46.783Z,4.80
2023-02-17T03:38:13.853Z,5.47
2023-02-17T03:40:40.755Z,4.87
2023-02-17T03:43:07.629Z,5.70
2023-02-17T03:45:37.452Z,5.00
2023-02-17T03:48:04.850Z,5.00
2023-02-17T03:50:31.850Z,5.37
2023-02-17T03:52:58.728Z,5.17
2023-02-17T03:55:25.588Z,5.37
2023-02-17T03:57:52.487Z,4.40
2023-02-17T04:00:20.159Z,4.80
2023-02-17T04:02:47.184Z,5.10
2023-02-17T04:05:14.046Z,5.13
2023-02-17T04:07:41.032Z,5.50
2023-02-17T04:10:09.651Z,5.97
2023-02-17T04:12:36.916Z,6.83
2023-02-17T04:15:04.143Z,6.10
2023-02-17T04:17:31.285Z,7.90
2023-02-17T04:19:58.342Z,6.73
2023-02-17T04:22:25.269Z,5.97
2023-02-17T04:24:52.113Z,6.90
2023-02-17T04:27:18.984Z,7.07
2023-02-17T04:29:45.857Z,6.70
2023-02-17T04:32:12.747Z,5.67
2023-02-17T04:34:39.733Z,5.93
2023-02-17T04:37:07.355Z,5.43
2023-02-17T04:39:34.273Z,6.30
2023-02-17T04:42:01.177Z,6.57
2023-02-17T04:44:28.060Z,6.70
2023-02-17T04:46:54.934Z,6.53
2023-02-17T04:49:21.829Z,6.73
2023-02-17T04:51:48.684Z,6.20
2023-02-17T04:54:15.662Z,6.93
2023-02-17T04:56:42.537Z,6.83
2023-02-17T04:59:09.436Z,6.73
2023-02-17T05:01:36.393Z,7.83
2023-02-17T05:04:03.483Z,6.40
2023-02-17T05:06:31.025Z,7.73
2023-02-17T05:08:57.890Z,7.70
2023-02-17T05:11:24.926Z,7.30
2023-02-17T05:13:52.803Z,6.73
2023-02-17T05:16:19.671Z,6.97
2023-02-17T05:18:46.542Z,6.67
2023-02-17T05:21:13.477Z,6.90
2023-02-17T05:23:41.227Z,6.93
2023-02-17T05:26:10.392Z,6.63
2023-02-17T05:28:38.559Z,6.30
2023-02-17T05:31:06.413Z,7.70
2023-02-17T05:33:33.645Z,6.90
2023-02-17T05:36:10.579Z,7.10
2023-02-17T05:38:39.638Z,6.43
2023-02-17T05:41:07.307Z,6.03
2023-02-17T05:43:34.261Z,6.50
2023-02-17T05:46:06.730Z,6.20
2023-02-17T05:48:34.564Z,6.33
2023-02-17T05:51:01.577Z,6.33
2023-02-17T05:53:28.496Z,5.27
2023-02-17T05:55:55.423Z,6.53
2023-02-17T05:58:22.516Z,6.20
2023-02-17T06:00:49.591Z,8.17
2023-02-17T06:03:16.902Z,7.00
2023-02-17T06:05:45.818Z,6.27
2023-02-17T06:08:12.698Z,6.37
2023-02-17T06:10:41.844Z,6.83
2023-02-17T06:13:08.809Z,5.87
2023-02-17T06:15:35.653Z,6.23
2023-02-17T06:18:02.505Z,5.53
2023-02-17T06:20:29.361Z,6.17
2023-02-17T06:22:56.236Z,5.23
2023-02-17T06:25:23.151Z,5.40
2023-02-17T06:27:50.095Z,5.00
2023-02-17T06:30:17.488Z,4.50
2023-02-17T06:32:44.434Z,4.90
2023-02-17T06:35:11.555Z,4.43
2023-02-17T06:37:39.207Z,4.57
2023-02-17T06:40:07.160Z,5.07
2023-02-17T06:42:34.075Z,4.43
2023-02-17T06:45:03.278Z,5.27
2023-02-17T06:47:30.285Z,5.13
2023-02-17T06:49:57.144Z,4.53
2023-02-17T06:52:24.218Z,4.87
2023-02-17T06:54:51.087Z,6.00
2023-02-17T06:57:18.755Z,4.63
2023-02-17T06:59:45.615Z,5.00
2023-02-17T07:02:14.568Z,5.13
2023-02-17T07:04:42.974Z,5.07
2023-02-17T07:07:10.902Z,5.10
2023-02-17T07:09:38.643Z,4.20
2023-02-17T07:12:06.989Z,5.43
2023-02-17T07:14:35.537Z,5.23
2023-02-17T07:17:02.836Z,4.90
2023-02-17T07:19:29.923Z,4.90
2023-02-17T07:21:57.210Z,4.87
2023-02-17T07:24:24.357Z,4.90
2023-02-17T07:26:53.587Z,5.00
2023-02-17T07:29:20.471Z,4.23
2023-02-17T07:31:47.363Z,5.47
2023-02-17T07:34:14.459Z,4.07
2023-02-17T07:36:41.554Z,4.53
2023-02-17T07:39:08.408Z,4.27
2023-02-17T07:41:35.289Z,4.40
2023-02-17T07:44:02.379Z,4.00
2023-02-17T07:46:29.243Z,4.30
2023-02-17T07:48:58.274Z,3.80
2023-02-17T07:51:25.897Z,4.40
2023-02-17T07:53:53.607Z,3.77
2023-02-17T07:56:23.095Z,4.03
2023-02-17T07:58:50.516Z,3.80
2023-02-17T08:01:24.630Z,3.27
2023-02-17T08:03:52.626Z,3.60
2023-02-17T08:06:24.117Z,3.80
2023-02-17T08:09:12.043Z,3.87
2023-02-17T08:12:00.394Z,3.87
2023-02-17T08:14:33.122Z,4.13
2023-02-17T08:17:00.449Z,4.33
2023-02-17T08:19:39.545Z,4.30
2023-02-17T08:22:13.385Z,6.43
2023-02-17T08:24:40.274Z,8.37
2023-02-17T08:27:07.179Z,7.33
2023-02-17T08:29:34.155Z,3.43
2023-02-17T08:32:01.192Z,4.30
2023-02-17T08:34:28.527Z,5.03
2023-02-17T08:36:55.402Z,6.80
2023-02-17T08:39:22.313Z,15.80
2023-02-17T08:41:49.191Z,8.43
2023-02-17T08:44:20.769Z,6.37
2023-02-17T08:46:51.001Z,5.87
2023-02-17T08:49:25.809Z,3.90
2023-02-17T08:51:53.846Z,3.97
2023-02-17T08:54:20.812Z,3.40
2023-02-17T08:56:47.684Z,3.53
2023-02-17T08:59:15.668Z,3.37
2023-02-17T09:03:57.297Z,3.57
2023-02-17T09:06:31.151Z,3.20
2023-02-17T09:08:58.020Z,3.30
2023-02-17T09:11:24.906Z,3.10
2023-02-17T09:13:51.875Z,3.60
2023-02-17T09:16:20.748Z,2.80
2023-02-17T09:18:47.973Z,2.97
2023-02-17T09:21:14.882Z,3.03
2023-02-17T09:23:42.128Z,3.13
2023-02-17T09:26:12.788Z,3.03
2023-02-17T09:28:40.057Z,3.50
2023-02-17T09:31:21.920Z,3.53
2023-02-17T09:33:51.021Z,4.00
2023-02-17T09:36:27.874Z,3.87
2023-02-17T09:38:56.460Z,3.13
2023-02-17T09:41:48.041Z,3.10
2023-02-17T09:44:25.800Z,2.60
2023-02-17T09:47:07.682Z,3.57
2023-02-17T09:49:49.535Z,2.90
2023-02-17T09:52:43.676Z,3.00
2023-02-17T09:55:23.425Z,2.50
2023-02-17T09:58:13.080Z,2.97
2023-02-17T10:00:55.965Z,3.53
2023-02-17T10:04:02.864Z,1.80
2023-02-17T10:06:38.274Z,2.50
2023-02-17T10:09:28.074Z,2.27
2023-02-17T10:12:09.785Z,2.50
2023-02-17T10:14:51.566Z,2.83
2023-02-17T10:17:40.074Z,2.40
2023-02-17T10:20:36.639Z,2.60
2023-02-17T10:23:19.202Z,2.33
2023-02-17T10:26:34.246Z,2.90
2023-02-17T10:29:49.150Z,8.10
2023-02-17T10:32:28.268Z,4.70
2023-02-17T10:35:24.287Z,3.40
2023-02-17T10:38:42.182Z,2.53
2023-02-17T10:41:19.898Z,3.10
2023-02-17T10:43:49.499Z,2.83
2023-02-17T10:46:28.736Z,3.00
2023-02-17T10:48:59.594Z,3.20
2023-02-17T10:51:32.025Z,3.13
2023-02-17T10:54:35.966Z,2.60
2023-02-17T10:57:10.643Z,2.90
2023-02-17T10:59:45.292Z,6.33
2023-02-17T11:02:39.809Z,2.70
2023-02-17T11:05:07.905Z,2.17
2023-02-17T11:07:42.532Z,3.30
2023-02-17T11:10:34.619Z,3.53
2023-02-17T11:13:03.484Z,2.30
2023-02-17T11:15:43.412Z,3.03
2023-02-17T11:18:25.833Z,2.83
2023-02-17T11:21:05.588Z,3.53
2023-02-17T11:23:33.441Z,2.20
2023-02-17T11:26:23.691Z,4.70
2023-02-17T11:28:51.227Z,3.57
2023-02-17T11:31:30.982Z,2.30
2023-02-17T11:33:58.230Z,2.17
2023-02-17T11:36:32.198Z,1.80
2023-02-17T11:39:00.780Z,3.20
2023-02-17T11:41:38.062Z,2.23
2023-02-17T11:44:05.242Z,1.90
2023-02-17T11:46:46.483Z,2.30
2023-02-17T11:49:43.904Z,2.70
2023-02-17T11:52:52.983Z,2.37
2023-02-17T11:55:35.189Z,2.63
2023-02-17T11:59:02.700Z,2.13
2023-02-17T12:02:14.056Z,2.40
2023-02-17T12:05:31.694Z,1.80
2023-02-17T12:08:30.551Z,2.07
2023-02-17T12:11:37.389Z,2.20
2023-02-17T12:14:49.885Z,1.90
2023-02-17T12:17:54.993Z,3.17
2023-02-17T12:20:59.225Z,2.73
2023-02-17T12:24:26.597Z,2.60
2023-02-17T12:27:56.460Z,2.60
2023-02-17T12:30:59.648Z,10.17
2023-02-17T12:33:54.389Z,3.90
2023-02-17T12:36:31.137Z,3.20
2023-02-17T12:39:13.346Z,2.67
2023-02-17T12:42:31.342Z,2.60
2023-02-17T12:45:07.777Z,2.20
2023-02-17T12:48:01.546Z,3.33
2023-02-17T12:50:40.591Z,2.60
2023-02-17T12:53:26.771Z,3.30
2023-02-17T12:56:01.981Z,3.10
2023-02-17T12:58:29.801Z,2.50
2023-02-17T13:01:13.678Z,2.10
2023-02-17T13:03:40.723Z,3.00
2023-02-17T13:06:37.025Z,3.33
2023-02-17T13:09:18.435Z,3.50
2023-02-17T13:11:45.562Z,2.17
2023-02-17T13:14:46.039Z,4.73
2023-02-17T13:17:39.905Z,2.90
2023-02-17T13:20:09.716Z,2.50
2023-02-17T13:22:45.151Z,2.57
2023-02-17T13:25:27.449Z,3.60
2023-02-17T13:27:54.795Z,3.33
2023-02-17T13:30:24.534Z,2.23
2023-02-17T13:33:30.022Z,2.90
2023-02-17T13:35:56.977Z,2.93
2023-02-17T13:38:33.332Z,2.37
2023-02-17T13:41:06.457Z,2.93
2023-02-17T13:43:42.920Z,3.03
2023-02-17T13:46:26.142Z,2.80
2023-02-17T13:49:24.016Z,3.10
2023-02-17T13:51:51.042Z,2.80
2023-02-17T13:54:23.107Z,3.27
2023-02-17T13:56:53.337Z,2.10
2023-02-17T13:59:27.884Z,2.70
2023-02-17T14:01:55.341Z,2.07
2023-02-17T14:04:31.530Z,2.83
2023-02-17T14:07:04.582Z,2.60
2023-02-17T14:09:35.048Z,2.13
2023-02-17T14:12:07.799Z,2.73
2023-02-17T14:14:39.017Z,2.47
2023-02-17T14:17:28.378Z,1.93
2023-02-17T14:19:55.253Z,2.30
2023-02-17T14:22:32.302Z,2.60
2023-02-17T14:25:11.646Z,2.50
2023-02-17T14:27:52.772Z,2.00
2023-02-17T14:30:39.941Z,2.13
2023-02-17T14:33:19.952Z,2.00
2023-02-17T14:36:02.653Z,1.67
2023-02-17T14:38:41.784Z,2.10
2023-02-17T14:41:09.816Z,2.03
2023-02-17T14:43:37.627Z,1.50
2023-02-17T14:46:09.890Z,2.40
2023-02-17T14:48:36.962Z,2.90
2023-02-17T14:51:13.629Z,3.37
2023-02-17T14:53:40.876Z,4.20
2023-02-17T14:56:27.545Z,3.33
2023-02-17T14:58:54.825Z,3.57
2023-02-17T15:01:25.161Z,1.80
2023-02-17T15:03:53.991Z,2.60
2023-02-17T15:06:32.544Z,2.10
2023-02-17T15:09:01.375Z,2.10
2023-02-17T15:11:34.348Z,2.13
2023-02-17T15:14:02.750Z,2.37
2023-02-17T15:16:30.706Z,2.20
2023-02-17T15:18:58.447Z,2.20
2023-02-17T15:21:32.198Z,2.10
2023-02-17T15:24:02.398Z,1.77
2023-02-17T15:26:30.790Z,1.40
2023-02-17T15:28:59.848Z,1.90
2023-02-17T15:31:33.111Z,2.07
2023-02-17T15:34:01.499Z,1.93
2023-02-17T15:36:29.008Z,1.83
2023-02-17T15:38:55.908Z,1.50
2023-02-17T15:41:29.962Z,1.80
2023-02-17T15:43:58.627Z,1.97
2023-02-17T15:46:33.608Z,1.20
2023-02-17T15:49:00.805Z,1.77
2023-02-17T15:51:27.706Z,1.63
2023-02-17T15:53:54.651Z,1.87
2023-02-17T15:56:34.034Z,1.97
2023-02-17T15:59:11.730Z,2.30
2023-02-17T16:01:40.111Z,2.50
2023-02-17T16:04:12.002Z,2.57
2023-02-17T16:06:39.848Z,2.17
2023-02-17T16:09:07.431Z,2.13
2023-02-17T16:11:37.798Z,3.13
2023-02-17T16:14:05.612Z,2.53
2023-02-17T16:16:33.903Z,3.63
2023-02-17T16:19:01.951Z,2.67
2023-02-17T16:21:29.033Z,2.00
2023-02-17T16:23:59.711Z,2.00
2023-02-17T16:26:36.689Z,1.80
2023-02-17T16:29:17.472Z,2.50
2023-02-17T16:31:45.318Z,2.07
2023-02-17T16:34:25.636Z,2.73
2023-02-17T16:36:58.929Z,2.43
2023-02-17T16:39:26.338Z,2.87
2023-02-17T16:41:53.988Z,2.10
2023-02-17T16:44:23.178Z,2.50
2023-02-17T16:46:56.451Z,2.60
2023-02-17T16:49:32.531Z,2.60
2023-02-17T16:52:16.936Z,2.30
2023-02-17T16:54:43.836Z,2.57
2023-02-17T16:57:18.940Z,2.13
2023-02-17T16:59:47.477Z,1.90
2023-02-17T17:02:14.820Z,1.60
2023-02-17T17:04:41.738Z,3.10
2023-02-17T17:07:14.457Z,2.30
2023-02-17T17:09:43.085Z,3.20
2023-02-17T17:12:12.052Z,3.63
2023-02-17T17:14:38.927Z,2.80
2023-02-17T17:17:05.869Z,2.80
2023-02-17T17:19:32.732Z,2.20
2023-02-17T17:21:59.730Z,2.43
2023-02-17T17:24:26.694Z,2.20
2023-02-17T17:26:53.642Z,2.10
2023-02-17T17:29:20.627Z,1.93
2023-02-17T17:31:49.192Z,2.20
2023-02-17T17:34:16.191Z,2.30
2023-02-17T17:36:47.138Z,2.90
2023-02-17T17:39:21.189Z,3.13
2023-02-17T17:41:49.297Z,2.57
2023-02-17T17:44:16.580Z,3.50
2023-02-17T17:46:43.856Z,3.50
2023-02-17T17:49:15.011Z,2.30
2023-02-17T17:51:42.147Z,3.70
2023-02-17T17:54:09.590Z,3.10
2023-02-17T17:56:43.241Z,3.57
2023-02-17T17:59:14.088Z,6.17
2023-02-17T18:01:42.414Z,2.83
2023-02-17T18:04:10.273Z,2.90
2023-02-17T18:06:51.683Z,3.13
2023-02-17T18:09:31.831Z,2.90
2023-02-17T18:12:11.758Z,2.83
2023-02-17T18:14:43.402Z,2.43
2023-02-17T18:17:15.351Z,2.30
2023-02-17T18:19:42.301Z,3.57
2023-02-17T18:22:09.172Z,3.40
2023-02-17T18:24:36.295Z,2.70
2023-02-17T18:27:04.275Z,2.93
2023-02-17T18:29:31.194Z,3.60
2023-02-17T18:31:59.082Z,3.50
2023-02-17T18:34:26.328Z,3.40
2023-02-17T18:36:53.483Z,2.90
2023-02-17T18:39:20.358Z,3.80
2023-02-17T18:41:47.289Z,3.90
2023-02-17T18:44:14.233Z,3.67
2023-02-17T18:46:41.741Z,4.03
2023-02-17T18:49:08.988Z,3.90
2023-02-17T18:51:36.759Z,4.10
2023-02-17T18:54:05.324Z,5.57
2023-02-17T18:56:33.820Z,3.50
2023-02-17T18:59:01.427Z,3.20
2023-02-17T19:01:38.379Z,4.50
2023-02-17T19:04:05.860Z,3.33
2023-02-17T19:06:35.751Z,3.57
2023-02-17T19:09:04.393Z,2.60
2023-02-17T19:11:32.940Z,3.03
2023-02-17T19:14:03.873Z,3.13
2023-02-17T19:16:32.839Z,3.20
2023-02-17T19:19:01.390Z,3.30
2023-02-17T19:21:28.631Z,3.10
2023-02-17T19:23:55.894Z,2.90
2023-02-17T19:26:23.173Z,3.27
2023-02-17T19:28:50.120Z,3.47
2023-02-17T19:31:20.308Z,2.87
2023-02-17T19:33:47.967Z,2.90
2023-02-17T19:36:22.526Z,3.40
2023-02-17T19:38:50.966Z,3.77
2023-02-17T19:41:19.686Z,3.47
2023-02-17T19:43:46.609Z,3.80
2023-02-17T19:46:25.483Z,3.30
2023-02-17T19:48:52.534Z,3.40
2023-02-17T19:51:20.399Z,3.73
2023-02-17T19:53:48.080Z,3.80
2023-02-17T19:56:23.295Z,4.03
2023-02-17T19:58:51.922Z,4.20
2023-02-17T20:01:27.509Z,3.43
2023-02-17T20:03:57.368Z,2.60
2023-02-17T20:06:37.512Z,2.70
2023-02-17T20:09:11.362Z,3.00
2023-02-17T20:11:38.545Z,5.50
2023-02-17T20:14:06.178Z,3.10
2023-02-17T20:16:33.876Z,2.87
2023-02-17T20:19:03.752Z,2.97
2023-02-17T20:21:38.142Z,2.90
2023-02-17T20:24:05.461Z,3.07
2023-02-17T20:26:41.193Z,2.13
2023-02-17T20:29:09.736Z,2.70
2023-02-17T20:31:40.640Z,2.60
2023-02-17T20:34:28.809Z,2.60
2023-02-17T20:36:58.328Z,3.60
2023-02-17T20:39:26.007Z,3.23
2023-02-17T20:41:55.392Z,2.67
2023-02-17T20:44:27.705Z,2.50
2023-02-17T20:46:57.073Z,2.60
2023-02-17T20:49:25.393Z,3.03
2023-02-17T20:51:52.686Z,2.50
2023-02-17T20:54:19.740Z,2.20
2023-02-17T20:56:48.558Z,2.73
2023-02-17T20:59:15.817Z,2.50
2023-02-17T21:01:43.329Z,2.40
2023-02-17T21:04:13.862Z,2.23
2023-02-17T21:06:42.954Z,3.40
2023-02-17T21:09:16.953Z,2.93
2023-02-17T21:11:45.450Z,2.77
2023-02-17T21:14:13.552Z,2.80
2023-02-17T21:16:45.244Z,2.53
2023-02-17T21:19:12.346Z,3.07
2023-02-17T21:21:40.775Z,2.60
2023-02-17T21:24:07.768Z,2.77
2023-02-17T21:26:34.802Z,5.00
2023-02-17T21:29:02.188Z,2.50
2023-02-17T21:31:29.390Z,2.83
2023-02-17T21:33:59.340Z,3.10
2023-02-17T21:36:28.959Z,2.73
2023-02-17T21:38:56.287Z,2.57
2023-02-17T21:41:27.468Z,2.90
2023-02-17T21:44:13.739Z,2.33
2023-02-17T21:46:42.869Z,2.43
2023-02-17T21:49:11.328Z,2.80
2023-02-17T21:51:39.915Z,2.07
2023-02-17T21:54:10.493Z,2.67
2023-02-17T21:56:38.298Z,2.47
2023-02-17T21:59:05.557Z,2.47
2023-02-17T22:01:32.598Z,3.27
2023-02-17T22:03:59.602Z,2.33
2023-02-17T22:06:33.393Z,2.30
2023-02-17T22:09:00.781Z,2.33
2023-02-17T22:11:38.041Z,2.90
2023-02-17T22:14:12.437Z,2.50
2023-02-17T22:16:40.334Z,2.93
2023-02-17T22:19:14.026Z,2.40
2023-02-17T22:21:43.091Z,2.87
2023-02-17T22:24:10.095Z,2.70
2023-02-17T22:26:37.370Z,3.33
2023-02-17T22:29:05.550Z,3.07
2023-02-17T22:31:34.527Z,3.17
2023-02-17T22:34:06.435Z,2.83
2023-02-17T22:36:36.908Z,3.50
2023-02-17T22:39:07.978Z,3.40
2023-02-17T22:41:36.276Z,3.70
2023-02-17T22:44:04.332Z,2.90
2023-02-17T22:46:31.710Z,3.00
2023-02-17T22:48:59.369Z,2.67
2023-02-17T22:51:39.394Z,3.00
2023-02-17T22:54:07.808Z,3.90
2023-02-17T22:56:35.140Z,3.50
2023-02-17T22:59:04.253Z,3.87
2023-02-17T23:01:35.620Z,3.23
2023-02-17T23:04:03.775Z,3.40
2023-02-17T23:06:37.300Z,3.03
2023-02-17T23:09:07.973Z,3.40
2023-02-17T23:11:54.878Z,3.37
2023-02-17T23:14:39.366Z,4.00
2023-02-17T23:17:13.371Z,3.40
2023-02-17T23:19:42.224Z,2.63
2023-02-17T23:22:16.083Z,3.53
2023-02-17T23:24:47.520Z,2.63
2023-02-17T23:27:15.179Z,3.90
2023-02-17T23:29:42.703Z,3.40
2023-02-17T23:32:09.643Z,2.80
2023-02-17T23:34:36.820Z,2.83
2023-02-17T23:37:03.701Z,3.17
2023-02-17T23:39:30.608Z,3.37
2023-02-17T23:41:57.500Z,3.07
2023-02-17T23:44:24.390Z,3.20
2023-02-17T23:46:51.255Z,3.30
2023-02-17T23:49:18.503Z,3.63
2023-02-17T23:51:47.021Z,3.27
2023-02-17T23:54:15.187Z,3.50
2023-02-17T23:56:43.020Z,4.10
2023-02-17T23:59:10.177Z,3.60
